Terminal Aerodrome Forecast
Issued by NWS

Home | Current Version | Previous Version | Text Only | Print | Product List | Glossary On
Versions: 1 2 3 4 5 6 7 8 9 10 11 12 13 14
000
FTAK31 PAJN 231300 AAA
TAFAGY
TAF AMD
PAGY 231329Z 2313/2412 20012G20KT P6SM BKN060
     FM231800 21015G25KT P6SM BKN120
     FM232200 20018G28KT P6SM BKN050
     FM240600 20010KT P6SM VCSH OVC050
      AMD LTD TO CLD VIS AND WIND=

USA.gov is the U.S. government's official web portal to all federal, state and local government web resources and services.